Time;durP1;ratioP1;P1;durP2;ratioP2;P2;SDS_P1;SDS_P2;PMS_P1;PMS_P2;Temp;Humidity;BMP_temperature;BMP_pressure;BME280_temperature;BME280_humidity;BME280_pressure;Samples;Min_cycle;Max_cycle;Signal;HPM_P1;HPM_P2
2024/04/17 00:02:11;;;;;;;0.83;0.83;;;;;;;-145.69;62.28;52173.09;5525062;26;20222;-77
2024/04/17 00:04:36;;;;;;;1.07;0.97;;;;;;;-145.69;61.81;52212.69;5524695;26;20277;-79
2024/04/17 00:07:07;;;;;;;2.43;1.17;;;;;;;-145.69;61.82;52218.63;5525611;26;20728;-76
2024/04/17 00:09:33;;;;;;;2.07;1.00;;;;;;;-145.69;61.83;52190.91;5525491;26;20221;-78
2024/04/17 00:12:01;;;;;;;1.50;1.03;;;;;;;-145.69;61.87;52188.91;5525758;26;20297;-77
2024/04/17 00:14:26;;;;;;;1.27;0.80;;;;;;;-145.69;61.84;52208.72;5525332;26;20756;-77
2024/04/17 00:16:54;;;;;;;2.00;0.80;;;;;;;-145.69;61.81;52163.19;5525556;26;20328;-78
2024/04/17 00:19:20;;;;;;;0.87;0.87;;;;;;;-145.69;61.44;52182.97;5525869;26;20349;-77
2024/04/17 00:21:48;;;;;;;0.83;0.83;;;;;;;-145.69;61.74;52194.88;5525147;26;20665;-78
2024/04/17 00:24:16;;;;;;;2.10;0.97;;;;;;;-145.69;61.36;52186.94;5524821;26;20225;-78
2024/04/17 00:26:44;;;;;;;0.80;0.80;;;;;;;-145.69;61.48;52200.81;5525021;26;20804;-78
2024/04/17 00:29:10;;;;;;;1.43;1.23;;;;;;;-145.69;61.65;52210.72;5525353;26;20546;-78
2024/04/17 00:31:39;;;;;;;1.40;0.70;;;;;;;-145.69;61.67;52181.00;5525487;26;20275;-77
2024/04/17 00:34:05;;;;;;;1.93;0.90;;;;;;;-145.69;61.84;52202.78;5525178;26;20712;-78
2024/04/17 00:36:33;;;;;;;1.40;0.90;;;;;;;-145.69;61.48;52198.81;5525750;26;20264;-78
2024/04/17 00:38:58;;;;;;;0.93;0.80;;;;;;;-145.69;61.93;52190.91;5524758;26;20225;-78
2024/04/17 00:41:29;;;;;;;3.20;0.70;;;;;;;-145.69;62.56;52182.97;5525273;26;20268;-78
2024/04/17 00:43:55;;;;;;;0.80;0.80;;;;;;;-145.69;62.19;52198.81;5524635;26;20221;-79
2024/04/17 00:46:23;;;;;;;0.83;0.83;;;;;;;-145.69;62.44;52210.72;5525191;26;20329;-79
2024/04/17 00:48:49;;;;;;;1.17;1.00;;;;;;;-145.69;62.34;52194.88;5524758;26;20222;-78
2024/04/17 00:51:17;;;;;;;0.87;0.83;;;;;;;-145.69;62.29;52177.03;5525302;26;20265;-78
2024/04/17 00:53:43;;;;;;;1.80;0.90;;;;;;;-145.69;62.79;52210.72;5525180;26;20780;-78
2024/04/17 00:56:12;;;;;;;0.90;0.90;;;;;;;-145.69;63.10;52181.00;5524664;26;20332;-77
2024/04/17 00:58:40;;;;;;;2.80;0.97;;;;;;;-145.69;62.71;52242.38;5524697;26;20264;-78
2024/04/17 01:01:08;;;;;;;0.87;0.87;;;;;;;-145.69;62.96;52190.91;5524558;26;20225;-78
2024/04/17 01:03:34;;;;;;;4.63;1.10;;;;;;;-145.69;62.93;52210.72;5523201;26;20269;-77
2024/04/17 01:06:02;;;;;;;1.20;1.03;;;;;;;-145.69;63.07;52198.81;5524460;26;20233;-77
2024/04/17 01:08:27;;;;;;;0.80;0.80;;;;;;;-145.69;63.40;52186.94;5524272;26;20735;-78
2024/04/17 01:11:02;;;;;;;0.80;0.80;;;;;;;-145.69;63.54;52198.81;5524550;26;20225;-77
2024/04/17 01:13:28;;;;;;;0.80;0.80;;;;;;;-145.69;63.39;52173.09;5524330;26;20272;-77
2024/04/17 01:15:59;;;;;;;1.00;1.00;;;;;;;-145.69;63.17;52218.63;5526993;26;20233;-77
2024/04/17 01:18:25;;;;;;;0.80;0.80;;;;;;;-145.69;63.38;52179.03;5525088;25;20233;-78
2024/04/17 01:20:53;;;;;;;0.80;0.80;;;;;;;-145.69;63.34;52206.75;5491668;26;20235;-78
2024/04/17 01:23:18;;;;;;;3.20;1.30;;;;;;;-145.69;63.44;52198.81;5518862;26;20229;-77
2024/04/17 01:25:51;;;;;;;1.53;0.90;;;;;;;-145.69;63.46;52190.91;5527234;26;20823;-77
2024/04/17 01:28:17;;;;;;;1.57;1.10;;;;;;;-145.69;63.48;52202.78;5491102;26;20752;-77
2024/04/17 01:30:45;;;;;;;0.97;0.73;;;;;;;-145.69;64.01;52184.97;5491382;26;20222;-77
2024/04/17 01:33:10;;;;;;;1.67;1.33;;;;;;;-145.69;63.67;52204.75;5491399;26;20222;-77
2024/04/17 01:35:38;;;;;;;1.20;0.93;;;;;;;-145.69;63.60;52167.13;5505042;26;20279;-76
2024/04/17 01:38:04;;;;;;;1.20;1.00;;;;;;;-145.69;63.19;52250.31;5527881;26;20222;-76
2024/04/17 01:40:32;;;;;;;1.37;1.27;;;;;;;-145.69;63.72;52194.88;5527530;26;20237;-76
2024/04/17 01:43:00;;;;;;;1.03;0.93;;;;;;;-145.69;63.53;52190.91;5527759;26;20232;-78
2024/04/17 01:45:28;;;;;;;1.43;1.20;;;;;;;-145.69;63.18;52212.69;5527388;26;20277;-77
2024/04/17 01:47:54;;;;;;;0.90;0.90;;;;;;;-145.69;62.65;52204.75;5527831;26;20704;-78
2024/04/17 01:50:29;;;;;;;0.80;0.80;;;;;;;-145.69;62.67;52212.69;5527925;26;20268;-77
2024/04/17 01:52:55;;;;;;;0.97;0.87;;;;;;;-145.69;63.18;52190.91;5527413;26;20700;-78
2024/04/17 01:55:23;;;;;;;1.57;1.00;;;;;;;-145.69;63.26;52194.88;5527447;26;20226;-78
2024/04/17 01:57:48;;;;;;;0.97;0.90;;;;;;;-145.69;63.61;52188.91;5527425;26;20268;-77
2024/04/17 02:00:19;;;;;;;0.97;0.93;;;;;;;-145.69;63.14;52210.72;5526829;26;20224;-77
2024/04/17 02:02:45;;;;;;;0.83;0.83;;;;;;;-145.69;62.76;52184.97;5528056;26;20269;-78
2024/04/17 02:05:13;;;;;;;0.70;0.70;;;;;;;-145.69;62.95;52208.72;5527431;26;20321;-78
2024/04/17 02:07:39;;;;;;;0.97;0.90;;;;;;;-145.69;63.07;52212.69;5527183;26;20217;-79
2024/04/17 02:10:08;;;;;;;2.10;0.70;;;;;;;-145.69;63.19;52198.81;5526697;26;20233;-77
2024/04/17 02:12:33;;;;;;;1.10;0.90;;;;;;;-145.69;62.63;52186.94;5527322;26;20226;-79
2024/04/17 02:15:01;;;;;;;0.80;0.80;;;;;;;-145.69;62.62;52204.75;5526379;26;20272;-79
2024/04/17 02:17:31;;;;;;;0.90;0.90;;;;;;;-145.69;62.61;52200.81;5526683;26;20564;-78
2024/04/17 02:20:00;;;;;;;0.80;0.80;;;;;;;-145.69;62.92;52208.72;5527720;26;20847;-78
2024/04/17 02:22:25;;;;;;;1.60;0.90;;;;;;;-145.69;62.81;52192.88;5527169;26;20734;-78
2024/04/17 02:24:53;;;;;;;1.03;1.00;;;;;;;-145.69;62.76;52206.75;5527011;26;20233;-78
2024/04/17 02:27:19;;;;;;;1.90;1.07;;;;;;;-145.69;62.59;52202.78;5526223;26;20230;-78
2024/04/17 02:29:51;;;;;;;0.90;0.80;;;;;;;-145.69;63.27;52186.94;5527423;26;20281;-79
2024/04/17 02:32:16;;;;;;;0.90;0.90;;;;;;;-145.69;63.46;52198.81;5526746;26;20264;-77
2024/04/17 02:34:47;;;;;;;0.80;0.80;;;;;;;-145.69;63.26;52206.75;5526680;26;20233;-78
2024/04/17 02:37:12;;;;;;;0.90;0.90;;;;;;;-145.69;62.56;52210.72;5527401;26;20225;-77
2024/04/17 02:39:41;;;;;;;0.80;0.80;;;;;;;-145.69;62.44;52182.97;5526906;26;20225;-78
2024/04/17 02:42:06;;;;;;;0.70;0.70;;;;;;;-145.69;62.80;52218.63;5526762;26;20226;-76
2024/04/17 02:44:34;;;;;;;0.80;0.80;;;;;;;-145.69;62.67;52206.75;5526771;26;20256;-77
2024/04/17 02:47:01;;;;;;;0.87;0.87;;;;;;;-145.69;62.38;52194.88;5526713;26;20218;-78
2024/04/17 02:49:29;;;;;;;0.70;0.70;;;;;;;-145.69;62.75;52190.91;5526487;26;20221;-77
2024/04/17 02:51:57;;;;;;;1.57;1.03;;;;;;;-145.69;62.44;52198.81;5526935;26;20260;-77
2024/04/17 02:54:25;;;;;;;2.77;1.00;;;;;;;-145.69;62.63;52228.53;5526552;26;20755;-78
2024/04/17 02:56:51;;;;;;;0.83;0.83;;;;;;;-145.69;62.36;52214.66;5526592;26;20272;-78
2024/04/17 02:59:19;;;;;;;0.73;0.73;;;;;;;-145.69;62.45;52224.56;5526264;26;20225;-78
2024/04/17 03:01:44;;;;;;;1.13;0.80;;;;;;;-145.69;61.99;52182.97;5526409;26;20252;-78
2024/04/17 03:04:12;;;;;;;2.30;0.90;;;;;;;-145.69;62.16;52190.91;5526427;26;20232;-79
2024/04/17 03:06:40;;;;;;;0.77;0.77;;;;;;;-145.69;61.87;52194.88;5526847;26;20225;-77
2024/04/17 03:09:10;;;;;;;0.80;0.80;;;;;;;-145.69;62.28;52194.88;5526329;26;20230;-77
2024/04/17 03:11:36;;;;;;;1.07;0.70;;;;;;;-145.69;61.66;52204.75;5525839;26;20723;-77
2024/04/17 03:14:04;;;;;;;1.17;0.97;;;;;;;-145.69;61.56;52198.81;5526864;26;20232;-78
2024/04/17 03:16:29;;;;;;;0.80;0.80;;;;;;;-145.69;61.59;52184.97;5526117;26;20268;-79
2024/04/17 03:18:58;;;;;;;0.60;0.60;;;;;;;-145.69;61.69;52190.91;5525479;26;20676;-79
2024/04/17 03:21:23;;;;;;;0.80;0.80;;;;;;;-145.69;61.83;52214.66;5526564;26;20257;-79
2024/04/17 03:23:51;;;;;;;0.97;0.90;;;;;;;-145.69;61.62;52220.59;5526549;26;20221;-79
2024/04/17 03:26:19;;;;;;;0.90;0.90;;;;;;;-145.69;61.54;52218.63;5526338;26;20268;-78
2024/04/17 03:28:48;;;;;;;2.57;0.97;;;;;;;-145.69;61.56;52194.88;5508435;25;20234;-79
2024/04/17 03:31:13;;;;;;;1.03;0.93;;;;;;;-145.69;61.62;52210.72;5520385;26;20229;-78
2024/04/17 03:33:41;;;;;;;1.27;1.00;;;;;;;-145.69;61.97;52204.75;5526591;26;20252;-78
2024/04/17 03:36:08;;;;;;;1.00;0.90;;;;;;;-145.69;62.25;52216.66;5526140;26;20226;-78
2024/04/17 03:38:36;;;;;;;1.10;0.93;;;;;;;-145.69;62.33;52190.91;5524821;26;20268;-77
2024/04/17 03:41:04;;;;;;;0.83;0.83;;;;;;;-145.69;62.21;52200.81;5526448;26;20221;-77
2024/04/17 03:43:35;;;;;;;1.00;0.90;;;;;;;-145.69;62.19;52194.88;5526344;26;20252;-78
2024/04/17 03:46:05;;;;;;;1.00;0.90;;;;;;;-145.69;62.29;52206.75;5525947;26;20221;-78
2024/04/17 03:48:33;;;;;;;1.20;1.10;;;;;;;-145.69;62.83;52224.56;5526298;26;20222;-79
2024/04/17 03:50:59;;;;;;;1.20;1.10;;;;;;;-145.69;63.29;52202.78;5525806;26;20221;-78
2024/04/17 03:53:27;;;;;;;1.20;1.10;;;;;;;-145.69;64.07;52181.00;5525991;26;20225;-78
2024/04/17 03:55:53;;;;;;;1.67;1.10;;;;;;;-145.69;64.04;52202.78;5525956;26;20225;-77
2024/04/17 03:58:21;;;;;;;1.17;1.07;;;;;;;-145.69;64.77;52208.72;5524529;26;20221;-78
2024/04/17 04:00:49;;;;;;;1.10;1.00;;;;;;;-145.69;65.26;52169.13;5525971;26;20226;-79
2024/04/17 04:03:17;;;;;;;1.20;1.10;;;;;;;-145.69;65.17;52230.50;5525563;26;20549;-79
2024/04/17 04:05:43;;;;;;;0.80;0.80;;;;;;;-145.69;65.38;52224.56;5524939;26;20233;-79
2024/04/17 04:08:11;;;;;;;1.10;1.00;;;;;;;-145.69;65.41;52216.66;5525376;26;20751;-80
2024/04/17 04:10:40;;;;;;;1.93;0.90;;;;;;;-145.69;66.18;52228.53;5525209;26;20221;-79
2024/04/17 04:13:10;;;;;;;0.80;0.80;;;;;;;-145.69;66.18;52222.59;5525311;26;20221;-78
2024/04/17 04:15:36;;;;;;;0.80;0.80;;;;;;;-145.69;66.91;52210.72;5525534;26;20261;-77
2024/04/17 04:18:10;;;;;;;0.90;0.80;;;;;;;-145.69;66.95;52238.44;5525670;26;20225;-78
2024/04/17 04:20:35;;;;;;;3.60;1.00;;;;;;;-145.69;66.48;52210.72;5525490;26;20370;-79
2024/04/17 04:23:06;;;;;;;0.80;0.80;;;;;;;-145.69;66.20;52206.75;5525393;26;20238;-78
2024/04/17 04:25:31;;;;;;;0.80;0.80;;;;;;;-145.69;66.61;52206.75;5525448;26;20296;-78
2024/04/17 04:28:00;;;;;;;1.00;0.97;;;;;;;-145.69;66.31;52220.59;5524337;26;20808;-78
2024/04/17 04:30:25;;;;;;;1.83;0.93;;;;;;;-145.69;66.75;52210.72;5525942;26;20864;-79
2024/04/17 04:32:56;;;;;;;4.07;1.10;;;;;;;-145.69;66.41;52226.53;5524776;26;20225;-79
2024/04/17 04:35:26;;;;;;;1.10;1.10;;;;;;;-145.69;66.68;52206.75;5525553;26;20350;-79
2024/04/17 04:37:56;;;;;;;0.90;0.90;;;;;;;-145.69;66.68;52218.63;5524507;26;20221;-78
2024/04/17 04:40:22;;;;;;;0.90;0.90;;;;;;;-145.69;66.63;52206.75;5525324;26;20257;-79
2024/04/17 04:42:50;;;;;;;1.17;0.93;;;;;;;-145.69;67.60;52240.41;5522724;26;20349;-79
2024/04/17 04:45:19;;;;;;;1.03;1.00;;;;;;;-145.69;66.68;52260.22;5525358;26;20252;-80
2024/04/17 04:47:47;;;;;;;2.13;1.00;;;;;;;-145.69;66.59;52216.66;5524799;26;20217;-79
2024/04/17 04:50:13;;;;;;;1.30;1.00;;;;;;;-145.69;67.24;52179.03;5527896;26;20267;-80
2024/04/17 04:52:44;;;;;;;1.00;0.90;;;;;;;-145.69;66.60;52206.75;5529058;26;20221;-80
2024/04/17 04:55:09;;;;;;;1.37;1.03;;;;;;;-145.69;67.44;52222.59;5529006;26;20280;-79
2024/04/17 04:57:37;;;;;;;0.97;0.93;;;;;;;-145.69;67.60;52214.66;5528398;26;20329;-80
2024/04/17 05:00:04;;;;;;;1.00;1.00;;;;;;;-145.69;67.19;52210.72;5528113;26;20742;-78
2024/04/17 05:02:32;;;;;;;1.10;1.00;;;;;;;-145.69;67.00;52256.25;5528562;26;20221;-79
2024/04/17 05:04:57;;;;;;;0.93;0.93;;;;;;;-145.69;67.35;52242.38;5528567;26;20222;-79
2024/04/17 05:07:25;;;;;;;0.67;0.67;;;;;;;-145.69;67.34;52222.59;5528174;26;20325;-79
2024/04/17 05:09:53;;;;;;;0.73;0.73;;;;;;;-145.69;67.48;52218.63;5528437;26;20259;-79
2024/04/17 05:12:21;;;;;;;0.90;0.73;;;;;;;-145.69;67.49;52210.72;5528489;26;20225;-78
2024/04/17 05:14:47;;;;;;;0.80;0.80;;;;;;;-145.69;67.66;52214.66;5528602;26;20271;-80
2024/04/17 05:17:15;;;;;;;0.90;0.90;;;;;;;-145.69;67.30;52236.44;5528481;26;20225;-79
2024/04/17 05:19:40;;;;;;;2.50;0.80;;;;;;;-145.69;67.14;52171.09;5527519;26;20251;-78
2024/04/17 05:22:09;;;;;;;1.13;1.03;;;;;;;-145.69;67.10;52244.38;5528297;26;20221;-78
2024/04/17 05:24:34;;;;;;;1.20;1.10;;;;;;;-145.69;66.53;52218.63;5528202;26;20233;-78
2024/04/17 05:27:05;;;;;;;0.90;0.87;;;;;;;-145.69;66.84;52214.66;5524644;26;20283;-78
2024/04/17 05:29:31;;;;;;;0.97;0.90;;;;;;;-145.69;67.08;52204.75;5519946;26;20818;-79
2024/04/17 05:31:59;;;;;;;1.17;0.80;;;;;;;-145.69;67.24;52210.72;5528217;26;20229;-78
2024/04/17 05:34:24;;;;;;;1.27;1.10;;;;;;;-145.69;66.73;52210.72;5528027;26;20218;-80
2024/04/17 05:36:53;;;;;;;1.20;1.10;;;;;;;-145.69;66.65;52232.50;5527567;26;20320;-78
2024/04/17 05:39:18;;;;;;;1.00;1.00;;;;;;;-145.69;66.73;52254.28;5527134;26;20319;-78
2024/04/17 05:41:46;;;;;;;2.17;1.00;;;;;;;-145.69;66.75;52222.59;5527397;26;20226;-79
2024/04/17 05:44:17;;;;;;;1.20;0.90;;;;;;;-145.69;66.31;52194.88;5527741;26;20217;-78
2024/04/17 05:46:42;;;;;;;0.80;0.80;;;;;;;-145.69;66.85;52224.56;5527900;26;20225;-78
2024/04/17 05:49:11;;;;;;;0.90;0.90;;;;;;;-145.69;66.85;52248.34;5528080;26;20276;-79
2024/04/17 05:51:36;;;;;;;1.13;0.97;;;;;;;-145.69;66.66;52228.53;5527373;26;20823;-79
2024/04/17 05:54:04;;;;;;;1.03;0.93;;;;;;;-145.69;66.43;52204.75;5527953;26;20225;-79
2024/04/17 05:56:30;;;;;;;3.10;0.97;;;;;;;-145.69;66.51;52204.75;5526936;26;20579;-80
2024/04/17 05:58:58;;;;;;;0.90;0.90;;;;;;;-145.69;66.36;52210.72;5527390;26;20241;-79
2024/04/17 06:01:26;;;;;;;0.73;0.73;;;;;;;-145.69;65.93;52206.75;5525340;26;20229;-79
2024/04/17 06:03:54;;;;;;;1.90;1.10;;;;;;;-145.69;65.68;52208.72;5527809;26;20222;-79
2024/04/17 06:06:20;;;;;;;0.93;0.90;;;;;;;-145.69;65.59;52222.59;5528113;26;20221;-79
2024/04/17 06:08:48;;;;;;;0.73;0.73;;;;;;;-145.69;65.33;52208.72;5527630;26;20306;-78
2024/04/17 06:11:14;;;;;;;1.90;1.00;;;;;;;-145.69;65.48;52242.38;5528183;26;20264;-76
2024/04/17 06:13:42;;;;;;;1.27;0.90;;;;;;;-145.69;65.18;52192.88;5526521;26;20716;-78
2024/04/17 06:16:08;;;;;;;0.87;0.87;;;;;;;-145.69;64.85;52220.59;5526854;26;20321;-78
2024/04/17 06:18:38;;;;;;;0.63;0.63;;;;;;;-145.69;65.01;52208.72;5527564;26;20225;-77
2024/04/17 06:21:04;;;;;;;0.70;0.70;;;;;;;-145.69;65.59;52250.31;5527140;26;20252;-77
2024/04/17 06:23:33;;;;;;;0.83;0.73;;;;;;;-145.69;66.20;52206.75;5527765;26;20329;-77
2024/04/17 06:25:58;;;;;;;1.73;0.60;;;;;;;-145.69;66.58;52194.88;5526985;26;20233;-78
2024/04/17 06:28:26;;;;;;;0.60;0.60;;;;;;;-145.69;66.36;52220.59;5526704;26;20272;-77
2024/04/17 06:30:52;;;;;;;0.70;0.70;;;;;;;-145.69;65.71;52222.59;5527396;26;20233;-77
2024/04/17 06:33:20;;;;;;;0.83;0.70;;;;;;;-145.69;66.26;52179.03;5528055;26;20318;-78
2024/04/17 06:35:48;;;;;;;0.63;0.63;;;;;;;-145.69;66.58;52200.81;5526964;26;20248;-78
2024/04/17 06:38:16;;;;;;;0.80;0.80;;;;;;;-145.69;66.68;52214.66;5527488;26;20252;-77
2024/04/17 06:40:42;;;;;;;0.60;0.60;;;;;;;-145.69;66.70;52224.56;5527449;26;20313;-78
2024/04/17 06:43:10;;;;;;;0.77;0.77;;;;;;;-145.69;67.02;52226.53;5527471;26;20621;-77
2024/04/17 06:45:36;;;;;;;0.73;0.73;;;;;;;-145.69;66.46;52224.56;5527358;26;20237;-79
2024/04/17 06:48:07;;;;;;;0.90;0.90;;;;;;;-145.69;67.03;52226.53;5527498;26;20226;-79
2024/04/17 06:50:32;;;;;;;0.70;0.70;;;;;;;-145.69;66.86;52202.78;5526753;26;20249;-79
2024/04/17 06:53:03;;;;;;;0.87;0.87;;;;;;;-145.69;66.53;52226.53;5529162;26;20261;-79
2024/04/17 06:55:28;;;;;;;0.83;0.77;;;;;;;-145.69;66.50;52242.38;5527537;26;20222;-79
2024/04/17 06:57:56;;;;;;;0.80;0.80;;;;;;;-145.69;65.31;52212.69;5526651;26;20315;-79
2024/04/17 07:00:29;;;;;;;1.33;0.80;;;;;;;-145.69;65.99;52246.34;5525903;26;20237;-78
2024/04/17 07:02:57;;;;;;;1.03;0.70;;;;;;;-145.69;66.49;52228.53;5527397;26;20561;-78
2024/04/17 07:05:23;;;;;;;0.67;0.67;;;;;;;-145.69;66.50;52202.78;5527780;26;20329;-79
2024/04/17 07:07:51;;;;;;;0.70;0.70;;;;;;;-145.69;66.16;52210.72;5527500;26;20553;-79
2024/04/17 07:10:19;;;;;;;1.73;0.70;;;;;;;-145.69;65.18;52179.03;5527296;26;20716;-78
2024/04/17 07:12:48;;;;;;;0.50;0.50;;;;;;;-145.69;64.99;52232.50;5527168;26;20233;-80
2024/04/17 07:15:13;;;;;;;0.60;0.60;;;;;;;-145.69;63.88;52200.81;5527757;26;20341;-80
2024/04/17 07:17:41;;;;;;;0.50;0.50;;;;;;;-145.69;63.27;52238.44;5527303;26;20700;-79
2024/04/17 07:20:07;;;;;;;0.60;0.60;;;;;;;-145.69;62.96;52194.88;5527795;26;20344;-80
2024/04/17 07:22:36;;;;;;;0.60;0.60;;;;;;;-145.69;62.71;52192.88;5530858;26;20711;-80
2024/04/17 07:25:01;;;;;;;2.17;0.50;;;;;;;-145.69;62.46;52177.03;5534862;26;20293;-80
2024/04/17 07:27:32;;;;;;;0.60;0.60;;;;;;;-145.69;62.88;52234.47;5533526;26;20317;-79
2024/04/17 07:29:57;;;;;;;0.73;0.73;;;;;;;-145.69;64.24;52188.91;5532175;26;20280;-79
2024/04/17 07:32:25;;;;;;;0.83;0.60;;;;;;;-145.69;63.94;52234.47;5527468;26;20317;-79
2024/04/17 07:34:51;;;;;;;0.50;0.50;;;;;;;-145.69;64.06;52218.63;5527450;26;20226;-78
2024/04/17 07:37:19;;;;;;;0.50;0.50;;;;;;;-145.69;63.91;52248.34;5523223;25;20409;-78
2024/04/17 07:39:45;;;;;;;0.70;0.60;;;;;;;-145.69;64.24;52190.91;5492213;26;20231;-78
2024/04/17 07:42:13;;;;;;;0.43;0.43;;;;;;;-145.69;64.38;52194.88;5526107;26;20541;-79
2024/04/17 07:44:41;;;;;;;0.70;0.70;;;;;;;-145.69;64.49;52206.75;5526690;26;20218;-77
2024/04/17 07:47:09;;;;;;;1.13;0.52;;;;;;;-145.69;64.71;52222.59;5525734;26;20344;-77
2024/04/17 07:49:35;;;;;;;1.03;0.70;;;;;;;-145.69;63.66;52238.44;5526012;26;20260;-78
2024/04/17 07:52:03;;;;;;;0.50;0.50;;;;;;;-145.69;64.01;52220.59;5526545;26;20537;-79
2024/04/17 07:54:29;;;;;;;1.43;0.80;;;;;;;-145.69;63.44;52212.69;5525758;26;20225;-78
2024/04/17 07:56:57;;;;;;;1.63;0.70;;;;;;;-145.69;64.21;52238.44;5525859;26;20225;-79
2024/04/17 07:59:23;;;;;;;0.60;0.60;;;;;;;-145.69;64.39;52230.50;5526164;26;20217;-78
2024/04/17 08:01:54;;;;;;;0.80;0.80;;;;;;;-145.69;65.02;52242.38;5525985;26;20281;-79
2024/04/17 08:04:20;;;;;;;0.60;0.60;;;;;;;-145.69;64.53;52202.78;5525697;26;20221;-79
2024/04/17 08:06:48;;;;;;;0.50;0.50;;;;;;;-145.69;64.42;52234.47;5524769;26;20267;-80
2024/04/17 08:09:14;;;;;;;0.53;0.53;;;;;;;-145.69;64.52;52222.59;5525600;26;20222;-79
2024/04/17 08:11:42;;;;;;;0.50;0.50;;;;;;;-145.69;64.01;52230.50;5525389;26;20766;-79
2024/04/17 08:14:07;;;;;;;0.50;0.50;;;;;;;-145.69;63.99;52234.47;5525402;26;20233;-79
2024/04/17 08:16:36;;;;;;;0.60;0.60;;;;;;;-145.69;62.10;52222.59;5525908;26;20268;-80
2024/04/17 08:19:04;;;;;;;0.80;0.80;;;;;;;-145.69;63.39;52236.44;5525391;26;20217;-78
2024/04/17 08:21:32;;;;;;;0.50;0.50;;;;;;;-145.69;62.28;52202.78;5525416;26;20346;-81
2024/04/17 08:23:58;;;;;;;0.63;0.50;;;;;;;-145.69;61.50;52242.38;5524743;26;20306;-78
2024/04/17 08:26:26;;;;;;;0.50;0.50;;;;;;;-145.69;62.06;52202.78;5525940;26;20233;-80
2024/04/17 08:28:52;;;;;;;0.40;0.40;;;;;;;-145.69;61.64;52212.69;5528496;26;20225;-80
2024/04/17 08:31:20;;;;;;;0.43;0.43;;;;;;;-145.69;60.35;52198.81;5527514;26;20229;-79
2024/04/17 08:33:45;;;;;;;0.50;0.50;;;;;;;-145.69;60.94;52186.94;5527689;26;20324;-79
2024/04/17 08:36:16;;;;;;;0.40;0.40;;;;;;;-145.69;61.35;52208.72;5526059;26;20831;-79
2024/04/17 08:38:41;;;;;;;0.43;0.43;;;;;;;-145.69;59.68;52186.94;5532883;26;20217;-79
2024/04/17 08:41:10;;;;;;;0.57;0.57;;;;;;;-145.69;58.61;52179.03;5529793;26;20276;-80
2024/04/17 08:43:36;;;;;;;0.40;0.40;;;;;;;-145.69;56.75;52163.19;5533721;26;20233;-81
2024/04/17 08:46:06;;;;;;;0.50;0.50;;;;;;;-145.69;57.60;52177.03;5538517;26;20225;-80
2024/04/17 08:48:35;;;;;;;0.60;0.60;;;;;;;-145.69;56.45;52181.00;5537756;26;20688;-80
2024/04/17 08:51:02;;;;;;;0.50;0.50;;;;;;;-145.69;55.44;52159.22;5549442;26;20221;-81
2024/04/17 08:53:35;;;;;;;0.83;0.83;;;;;;;-145.69;55.14;52179.03;5548775;25;20221;-80
2024/04/17 08:56:01;;;;;;;1.00;0.97;;;;;;;-145.69;53.27;52171.09;5548308;26;20221;-80
2024/04/17 08:58:30;;;;;;;0.53;0.53;;;;;;;-145.69;53.56;52188.91;5546287;26;20252;-80
2024/04/17 09:00:57;;;;;;;0.70;0.70;;;;;;;-145.69;53.98;52196.84;5542485;26;20225;-81
2024/04/17 09:03:26;;;;;;;0.60;0.60;;;;;;;-145.69;54.11;52137.44;5541110;26;20229;-81
2024/04/17 09:05:57;;;;;;;0.50;0.50;;;;;;;-145.69;53.38;52208.72;5541017;26;20229;-81
2024/04/17 09:08:25;;;;;;;0.50;0.50;;;;;;;-145.69;53.24;52171.09;5536656;26;20272;-81
2024/04/17 09:10:54;;;;;;;0.63;0.60;;;;;;;-145.69;52.78;52194.88;5532499;26;20229;-80
2024/04/17 09:13:22;;;;;;;1.00;1.00;;;;;;;-145.69;51.26;52186.94;5524200;26;20681;-80
2024/04/17 09:15:48;;;;;;;1.17;1.10;;;;;;;-145.69;51.73;52173.09;5523916;26;20720;-81
2024/04/17 09:18:17;;;;;;;1.00;1.00;;;;;;;-145.69;51.69;52188.91;5523739;26;20318;-81
2024/04/17 09:20:42;;;;;;;0.82;0.82;;;;;;;-145.69;52.78;52159.22;5525126;26;20357;-80
2024/04/17 09:23:11;;;;;;;0.77;0.77;;;;;;;-145.69;51.13;52190.91;5524534;26;20323;-81
2024/04/17 09:25:37;;;;;;;0.73;0.73;;;;;;;-145.69;51.76;52181.00;5524025;26;20238;-82
2024/04/17 09:28:11;;;;;;;1.20;1.10;;;;;;;-145.69;51.30;52175.06;5523945;26;20225;-82
2024/04/17 09:30:37;;;;;;;0.77;0.77;;;;;;;-145.69;51.66;52175.06;5524677;26;20237;-79
2024/04/17 09:33:06;;;;;;;0.73;0.73;;;;;;;-145.69;51.97;52208.72;5525121;26;20221;-81
2024/04/17 09:35:32;;;;;;;0.60;0.60;;;;;;;-145.69;50.42;52171.09;5525244;26;20235;-81
2024/04/17 09:38:02;;;;;;;0.60;0.60;;;;;;;-145.69;50.69;52161.19;5530233;26;20588;-80
2024/04/17 09:40:28;;;;;;;0.63;0.63;;;;;;;-145.69;50.93;52167.13;5529828;26;20222;-81
2024/04/17 09:42:59;;;;;;;1.30;1.00;;;;;;;-145.69;50.17;52198.81;5518620;26;20290;-81
2024/04/17 09:45:34;;;;;;;1.43;1.33;;;;;;;-145.69;50.25;52184.97;5531563;26;20697;-81
2024/04/17 09:48:04;;;;;;;0.70;0.70;;;;;;;-145.69;49.26;52175.06;5523431;26;20284;-82
2024/04/17 09:50:33;;;;;;;4.43;2.40;;;;;;;-145.69;50.00;52143.38;5536305;26;20268;-81
2024/04/17 09:53:02;;;;;;;1.77;1.60;;;;;;;-145.69;49.78;52159.22;5539940;26;20281;-80
2024/04/17 09:55:30;;;;;;;1.20;1.10;;;;;;;-145.69;49.68;52165.16;5543734;26;20575;-81
2024/04/17 09:57:59;;;;;;;1.20;1.10;;;;;;;-145.69;50.28;52163.19;5542353;26;20605;-79
2024/04/17 10:00:29;;;;;;;0.80;0.80;;;;;;;-145.69;50.37;52163.19;5541165;26;20229;-80
2024/04/17 10:02:59;;;;;;;1.00;0.90;;;;;;;-145.69;50.24;52177.03;5534604;26;20272;-79
2024/04/17 10:05:27;;;;;;;0.60;0.60;;;;;;;-145.69;50.19;52184.97;5532488;26;20217;-80
2024/04/17 10:07:55;;;;;;;1.13;1.10;;;;;;;-145.69;51.17;52182.97;5532664;26;20241;-80
2024/04/17 10:10:21;;;;;;;0.90;0.90;;;;;;;-145.69;51.61;52186.94;5533682;26;20285;-80
2024/04/17 10:12:52;;;;;;;1.13;1.10;;;;;;;-145.69;52.02;52218.63;5529937;26;20387;-81
2024/04/17 10:15:18;;;;;;;1.30;1.20;;;;;;;-145.69;52.13;52163.19;5535250;26;20214;-80
2024/04/17 10:17:49;;;;;;;0.67;0.67;;;;;;;-145.69;53.08;52167.13;5540708;26;20321;-81
2024/04/17 10:20:28;;;;;;;0.80;0.80;;;;;;;-145.69;52.62;52151.28;5541853;26;20941;-81
2024/04/17 10:23:04;;;;;;;0.70;0.70;;;;;;;-145.69;52.87;52173.09;5541712;26;20306;-81
2024/04/17 10:25:33;;;;;;;0.70;0.70;;;;;;;-145.69;53.04;52194.88;5541223;26;20267;-82
2024/04/17 10:28:06;;;;;;;1.17;1.07;;;;;;;-145.69;53.03;52190.91;5540995;26;20269;-81
2024/04/17 10:30:39;;;;;;;0.80;0.80;;;;;;;-145.69;53.35;52194.88;5535822;26;20272;-81
2024/04/17 10:33:17;;;;;;;0.40;0.40;;;;;;;-145.69;53.18;52169.13;5511709;26;20269;-80
2024/04/17 10:35:45;;;;;;;0.93;0.70;;;;;;;-145.69;52.93;52173.09;5505226;26;20262;-80
2024/04/17 10:38:15;;;;;;;0.70;0.70;;;;;;;-145.69;52.31;52214.66;5504045;26;20257;-80
2024/04/17 10:40:43;;;;;;;0.70;0.60;;;;;;;-145.69;52.25;52204.75;5505064;26;20222;-81
2024/04/17 10:43:12;;;;;;;0.60;0.60;;;;;;;-145.69;51.97;52186.94;5511919;26;20245;-80
2024/04/17 10:45:43;;;;;;;0.60;0.60;;;;;;;-145.69;51.43;52179.03;5499852;26;20352;-81
2024/04/17 10:48:18;;;;;;;1.27;0.70;;;;;;;-145.69;51.15;52175.06;5541778;26;20278;-80
2024/04/17 10:50:46;;;;;;;0.60;0.60;;;;;;;-145.69;51.58;52188.91;5546925;25;20205;-80
2024/04/17 10:53:12;;;;;;;0.70;0.70;;;;;;;-145.69;51.20;52171.09;5552623;25;20282;-80
2024/04/17 10:55:40;;;;;;;0.97;0.67;;;;;;;-145.69;51.80;52171.09;5551967;25;20605;-81
2024/04/17 10:58:09;;;;;;;0.70;0.70;;;;;;;-145.69;52.39;52165.16;5550529;26;20273;-80
2024/04/17 11:00:37;;;;;;;0.90;0.73;;;;;;;-145.69;52.96;52177.03;5550079;26;20217;-79
2024/04/17 11:03:06;;;;;;;1.57;1.10;;;;;;;-145.69;53.67;52173.09;5549319;26;20227;-80
2024/04/17 11:05:47;;;;;;;1.20;1.10;;;;;;;-145.69;53.83;52186.94;5548028;26;20310;-79
2024/04/17 11:08:12;;;;;;;0.90;0.90;;;;;;;-145.69;53.88;52184.97;5545636;26;20332;-79
2024/04/17 11:10:41;;;;;;;1.23;1.00;;;;;;;-145.69;54.09;52163.19;5545805;26;20237;-80
2024/04/17 11:13:14;;;;;;;0.87;0.80;;;;;;;-145.69;53.87;52186.94;5545414;26;20205;-80
2024/04/17 11:15:43;;;;;;;0.87;0.87;;;;;;;-145.69;53.65;52184.97;5545836;25;20229;-81
2024/04/17 11:18:08;;;;;;;0.80;0.80;;;;;;;-145.69;53.57;52230.50;5540713;26;20222;-78
2024/04/17 11:20:42;;;;;;;0.60;0.60;;;;;;;-145.69;53.57;52171.09;5540601;26;20550;-78